createdAt,value
2018-12-27T00:00:24.173Z,50.13
2018-12-27T00:02:56.451Z,47.30
2018-12-27T00:05:25.241Z,43.37
2018-12-27T00:07:54.042Z,44.30
2018-12-27T00:10:22.823Z,48.20
2018-12-27T00:12:51.723Z,51.50
2018-12-27T00:15:22.727Z,47.77
2018-12-27T00:17:51.633Z,47.10
2018-12-27T00:20:21.351Z,45.43
2018-12-27T00:22:50.139Z,48.57
2018-12-27T00:25:20.538Z,48.57
2018-12-27T00:27:49.227Z,48.90
2018-12-27T00:30:24.859Z,44.17
2018-12-27T00:32:54.473Z,46.73
2018-12-27T00:35:23.252Z,46.37
2018-12-27T00:37:52.842Z,49.93
2018-12-27T00:40:22.409Z,49.37
2018-12-27T00:42:51.887Z,48.17
2018-12-27T00:45:20.786Z,44.00
2018-12-27T00:47:49.686Z,45.67
2018-12-27T00:50:18.460Z,50.10
2018-12-27T00:52:47.268Z,45.97
2018-12-27T00:55:16.089Z,41.43
2018-12-27T00:57:44.907Z,44.87
2018-12-27T01:00:13.699Z,44.30
2018-12-27T01:02:42.560Z,49.47
2018-12-27T01:05:11.352Z,45.93
2018-12-27T01:07:40.134Z,53.77
2018-12-27T01:10:08.923Z,43.73
2018-12-27T01:12:38.856Z,42.37
2018-12-27T01:15:07.656Z,46.63
2018-12-27T01:17:36.468Z,44.80
2018-12-27T01:20:05.261Z,45.77
2018-12-27T01:22:34.084Z,48.07
2018-12-27T01:25:03.455Z,44.70
2018-12-27T01:27:33.370Z,45.63
2018-12-27T01:30:02.149Z,47.23
2018-12-27T01:32:30.943Z,43.30
2018-12-27T01:34:59.736Z,46.50
2018-12-27T01:37:28.519Z,42.93
2018-12-27T01:39:58.138Z,43.13
2018-12-27T01:42:27.015Z,46.43
2018-12-27T01:44:55.771Z,39.93
2018-12-27T01:47:24.584Z,44.00
2018-12-27T01:49:53.379Z,43.57
2018-12-27T01:52:22.161Z,44.57
2018-12-27T01:54:50.949Z,48.73
2018-12-27T01:57:19.735Z,44.03
2018-12-27T01:59:48.523Z,45.00
2018-12-27T02:02:17.315Z,45.87
2018-12-27T02:04:46.636Z,37.87
2018-12-27T02:07:15.454Z,40.90
2018-12-27T02:09:44.243Z,44.20
2018-12-27T02:12:13.040Z,41.10
2018-12-27T02:14:41.876Z,43.77
2018-12-27T02:17:10.660Z,47.47
2018-12-27T02:19:39.449Z,53.87
2018-12-27T02:22:08.219Z,49.47
2018-12-27T02:24:37.754Z,48.27
2018-12-27T02:27:07.612Z,40.23
2018-12-27T02:29:36.342Z,44.93
2018-12-27T02:32:05.134Z,45.07
2018-12-27T02:34:34.655Z,55.20
2018-12-27T02:37:03.576Z,48.70
2018-12-27T02:39:32.377Z,46.17
2018-12-27T02:42:01.162Z,54.23
2018-12-27T02:44:29.975Z,49.77
2018-12-27T02:46:58.780Z,51.43
2018-12-27T02:49:27.554Z,50.00
2018-12-27T02:51:56.347Z,50.03
2018-12-27T02:54:25.127Z,44.20
2018-12-27T02:56:53.935Z,54.83
2018-12-27T02:59:23.627Z,51.33
2018-12-27T03:01:52.420Z,45.77
2018-12-27T03:04:22.275Z,43.23
2018-12-27T03:06:51.060Z,44.73
2018-12-27T03:09:19.880Z,45.00
2018-12-27T03:11:48.655Z,54.87
2018-12-27T03:14:17.991Z,43.60
2018-12-27T03:16:46.767Z,47.20
2018-12-27T03:19:15.562Z,52.97
2018-12-27T03:21:46.080Z,48.90
2018-12-27T03:24:14.872Z,49.33
2018-12-27T03:26:43.682Z,51.10
2018-12-27T03:29:12.509Z,51.13
2018-12-27T03:31:41.326Z,54.40
2018-12-27T03:34:10.412Z,45.53
2018-12-27T03:36:39.201Z,54.03
2018-12-27T03:39:07.984Z,46.20
2018-12-27T03:41:36.818Z,42.93
2018-12-27T03:44:05.605Z,48.03
2018-12-27T03:46:34.378Z,46.63
2018-12-27T03:49:03.182Z,43.03
2018-12-27T03:51:32.819Z,49.97
2018-12-27T03:54:01.635Z,43.43
2018-12-27T03:56:31.383Z,48.07
2018-12-27T03:59:00.635Z,45.97
2018-12-27T04:01:29.416Z,42.20
2018-12-27T04:04:01.590Z,40.70
2018-12-27T04:06:27.875Z,52.93
2018-12-27T04:08:58.358Z,52.67
2018-12-27T04:11:27.169Z,45.97
2018-12-27T04:13:55.959Z,42.77
2018-12-27T04:16:24.729Z,47.73
2018-12-27T04:18:53.611Z,47.47
2018-12-27T04:21:22.675Z,53.47
2018-12-27T04:23:52.308Z,49.77
2018-12-27T04:26:21.563Z,44.87
2018-12-27T04:28:50.405Z,48.00
2018-12-27T04:31:19.659Z,42.47
2018-12-27T04:33:48.477Z,41.17
2018-12-27T04:36:17.285Z,48.07
2018-12-27T04:38:46.122Z,44.27
2018-12-27T04:41:15.462Z,48.13
2018-12-27T04:43:44.395Z,50.40
2018-12-27T04:46:13.168Z,53.00
2018-12-27T04:48:41.975Z,49.33
2018-12-27T04:51:10.768Z,50.03
2018-12-27T04:53:40.546Z,41.70
2018-12-27T04:56:09.328Z,43.67
2018-12-27T04:58:38.244Z,45.60
2018-12-27T05:01:07.697Z,43.53
2018-12-27T05:03:36.509Z,42.53
2018-12-27T05:06:11.664Z,42.30
2018-12-27T05:08:40.507Z,40.90
2018-12-27T05:11:10.294Z,39.37
2018-12-27T05:13:39.750Z,49.30
2018-12-27T05:16:09.346Z,40.73
2018-12-27T05:18:38.242Z,44.07
2018-12-27T05:21:07.123Z,44.60
2018-12-27T05:23:36.207Z,38.53
2018-12-27T05:26:05.551Z,35.70
2018-12-27T05:28:34.404Z,39.77
2018-12-27T05:31:04.436Z,51.57
2018-12-27T05:33:35.130Z,38.87
2018-12-27T05:36:03.893Z,38.60
2018-12-27T05:38:32.699Z,42.00
2018-12-27T05:41:01.485Z,37.10
2018-12-27T05:43:30.308Z,47.53
2018-12-27T05:45:59.207Z,43.87
2018-12-27T05:48:28.037Z,49.17
2018-12-27T05:50:56.887Z,39.30
2018-12-27T05:53:25.714Z,46.93
2018-12-27T05:55:54.554Z,38.00
2018-12-27T05:58:23.402Z,39.57
2018-12-27T06:00:52.204Z,42.43
2018-12-27T06:03:21.051Z,36.90
2018-12-27T06:05:50.200Z,41.30
2018-12-27T06:08:18.987Z,41.10
2018-12-27T06:10:47.864Z,43.83
2018-12-27T06:13:18.584Z,37.00
2018-12-27T06:15:47.427Z,48.73
2018-12-27T06:18:16.318Z,46.73
2018-12-27T06:20:45.119Z,55.57
2018-12-27T06:23:14.451Z,48.33
2018-12-27T06:25:43.244Z,49.63
2018-12-27T06:28:12.024Z,50.07
2018-12-27T06:30:40.819Z,48.33
2018-12-27T06:33:10.762Z,54.70
2018-12-27T06:35:40.335Z,42.37
2018-12-27T06:38:09.123Z,43.00
2018-12-27T06:40:39.076Z,46.40
2018-12-27T06:43:07.952Z,47.83
2018-12-27T06:45:36.838Z,46.07
2018-12-27T06:48:07.008Z,34.13
2018-12-27T06:50:35.883Z,43.07
2018-12-27T06:53:04.675Z,54.43
2018-12-27T06:55:34.731Z,44.87
2018-12-27T06:58:03.563Z,53.67
2018-12-27T07:00:32.877Z,60.13
2018-12-27T07:03:01.750Z,52.83
2018-12-27T07:05:30.691Z,49.10
2018-12-27T07:08:00.838Z,46.73
2018-12-27T07:10:29.830Z,37.30
2018-12-27T07:12:58.615Z,40.27
2018-12-27T07:15:28.073Z,55.30
2018-12-27T07:17:57.514Z,42.80
2018-12-27T07:20:26.576Z,55.27
2018-12-27T07:22:55.424Z,49.87
2018-12-27T07:25:25.016Z,55.97
2018-12-27T07:27:53.882Z,49.87
2018-12-27T07:30:22.685Z,45.37
2018-12-27T07:32:51.479Z,44.13
2018-12-27T07:35:21.268Z,43.03
2018-12-27T07:37:50.047Z,39.03
2018-12-27T07:40:18.895Z,34.93
2018-12-27T07:42:47.960Z,42.57
2018-12-27T07:45:17.287Z,46.93
2018-12-27T07:47:47.243Z,45.67
2018-12-27T07:50:16.223Z,41.23
2018-12-27T07:52:45.066Z,41.83
2018-12-27T07:55:13.850Z,48.97
2018-12-27T07:57:43.759Z,53.47
2018-12-27T08:00:12.583Z,46.57
2018-12-27T08:02:41.367Z,51.23
2018-12-27T08:05:10.819Z,53.13
2018-12-27T08:07:39.621Z,55.00
2018-12-27T08:10:08.416Z,49.43
2018-12-27T08:12:37.720Z,43.83
2018-12-27T08:15:07.093Z,43.33
2018-12-27T08:17:35.879Z,59.10
2018-12-27T08:20:04.783Z,45.40
2018-12-27T08:22:33.623Z,43.53
2018-12-27T08:25:03.147Z,45.27
2018-12-27T08:27:32.602Z,44.00
2018-12-27T08:30:01.383Z,43.60
2018-12-27T08:32:31.649Z,43.20
2018-12-27T08:35:01.160Z,51.93
2018-12-27T08:37:29.994Z,47.07
2018-12-27T08:39:59.151Z,41.23
2018-12-27T08:42:28.073Z,41.70
2018-12-27T08:44:57.988Z,40.20
2018-12-27T08:47:26.775Z,54.87
2018-12-27T08:49:55.627Z,38.93
2018-12-27T08:52:24.461Z,47.93
2018-12-27T08:54:53.240Z,46.83
2018-12-27T08:57:22.028Z,46.10
2018-12-27T08:59:51.411Z,46.67
2018-12-27T09:02:20.303Z,42.93
2018-12-27T09:04:49.620Z,41.33
2018-12-27T09:07:18.443Z,39.93
2018-12-27T09:09:47.832Z,37.27
2018-12-27T09:12:16.679Z,41.13
2018-12-27T09:14:45.633Z,38.40
2018-12-27T09:17:14.489Z,39.23
2018-12-27T09:19:43.277Z,41.23
2018-12-27T09:22:12.071Z,37.67
2018-12-27T09:24:40.911Z,36.30
2018-12-27T09:27:10.423Z,35.03
2018-12-27T09:29:39.326Z,40.00
2018-12-27T09:32:08.244Z,39.53
2018-12-27T09:34:37.793Z,36.20
2018-12-27T09:37:06.581Z,35.87
2018-12-27T09:39:35.424Z,43.40
2018-12-27T09:42:05.223Z,37.07
2018-12-27T09:44:35.370Z,36.73
2018-12-27T09:47:04.255Z,38.47
2018-12-27T09:49:37.087Z,35.50
2018-12-27T09:52:05.835Z,38.30
2018-12-27T09:54:35.592Z,35.87
2018-12-27T09:57:04.432Z,40.63
2018-12-27T09:59:33.285Z,31.93
2018-12-27T10:02:02.141Z,34.97
2018-12-27T10:04:32.447Z,33.80
2018-12-27T10:07:02.295Z,39.23
2018-12-27T10:09:32.792Z,32.67
2018-12-27T10:12:02.397Z,37.33
2018-12-27T10:14:31.235Z,33.70
2018-12-27T10:17:00.061Z,34.20
2018-12-27T10:19:29.084Z,32.87
2018-12-27T10:21:57.839Z,39.23
2018-12-27T10:24:27.820Z,34.73
2018-12-27T10:26:56.716Z,38.37
2018-12-27T10:29:25.482Z,40.23
2018-12-27T10:31:54.962Z,36.40
2018-12-27T10:34:23.795Z,33.73
2018-12-27T10:36:52.583Z,33.60
2018-12-27T10:39:21.375Z,37.13
2018-12-27T10:41:50.977Z,41.57
2018-12-27T10:44:19.864Z,40.27
2018-12-27T10:46:48.655Z,44.77
2018-12-27T10:49:17.554Z,32.87
2018-12-27T10:51:46.455Z,41.67
2018-12-27T10:54:15.237Z,33.90
2018-12-27T10:56:44.091Z,41.87
2018-12-27T10:59:12.899Z,38.00
2018-12-27T11:01:41.684Z,37.00
2018-12-27T11:04:11.339Z,34.37
2018-12-27T11:06:40.879Z,34.73
2018-12-27T11:09:09.794Z,29.30
2018-12-27T11:11:38.618Z,30.70
2018-12-27T11:14:08.571Z,62.93
2018-12-27T11:16:38.670Z,30.77
2018-12-27T11:19:07.551Z,30.77
2018-12-27T11:21:37.097Z,25.93
2018-12-27T11:24:06.537Z,29.57
2018-12-27T11:26:36.403Z,30.10
2018-12-27T11:29:05.257Z,28.67
2018-12-27T11:31:34.212Z,27.33
2018-12-27T11:34:03.017Z,34.13
2018-12-27T11:36:31.916Z,26.23
2018-12-27T11:39:00.740Z,26.77
2018-12-27T11:41:29.576Z,26.50
2018-12-27T11:43:58.372Z,29.03
2018-12-27T11:46:27.665Z,36.53
2018-12-27T11:48:56.513Z,28.13
2018-12-27T11:51:25.863Z,29.60
2018-12-27T11:53:54.651Z,29.10
2018-12-27T11:56:23.522Z,29.07
2018-12-27T11:58:53.446Z,23.30
2018-12-27T12:01:22.988Z,26.03
2018-12-27T12:03:53.216Z,29.70
2018-12-27T12:06:22.708Z,26.30
2018-12-27T12:08:51.555Z,30.60
2018-12-27T12:11:21.375Z,26.50
2018-12-27T12:13:51.082Z,26.03
2018-12-27T12:16:20.037Z,27.23
2018-12-27T12:18:48.807Z,29.73
2018-12-27T12:21:17.720Z,27.10
2018-12-27T12:23:46.507Z,34.90
2018-12-27T12:26:15.479Z,34.17
2018-12-27T12:28:44.259Z,32.37
2018-12-27T12:31:13.104Z,29.40
2018-12-27T12:33:41.911Z,28.53
2018-12-27T12:36:11.132Z,27.43
2018-12-27T12:38:39.515Z,29.03
2018-12-27T12:41:08.386Z,28.17
2018-12-27T12:43:37.249Z,28.13
2018-12-27T12:46:06.083Z,33.30
2018-12-27T12:48:34.926Z,28.00
2018-12-27T12:51:04.570Z,32.83
2018-12-27T12:53:33.363Z,35.33
2018-12-27T12:56:02.584Z,30.93
2018-12-27T12:58:31.504Z,30.43
2018-12-27T13:01:00.283Z,31.60
2018-12-27T13:03:29.092Z,31.60
2018-12-27T13:05:59.027Z,29.50
2018-12-27T13:08:29.154Z,32.17
2018-12-27T13:10:57.931Z,26.97
2018-12-27T13:13:26.755Z,28.37
2018-12-27T13:15:56.491Z,31.03
2018-12-27T13:18:25.316Z,30.27
2018-12-27T13:20:54.114Z,31.57
2018-12-27T13:23:22.893Z,32.77
2018-12-27T13:25:52.643Z,33.30
2018-12-27T13:28:21.426Z,31.47
2018-12-27T13:30:50.208Z,33.17
2018-12-27T13:33:19.035Z,31.97
2018-12-27T13:35:48.957Z,33.73
2018-12-27T13:38:17.733Z,28.77
2018-12-27T13:40:47.750Z,27.93
2018-12-27T13:43:16.578Z,33.17
2018-12-27T13:45:45.397Z,25.93
2018-12-27T13:48:14.272Z,26.33
2018-12-27T13:50:44.241Z,31.10
2018-12-27T13:53:13.052Z,33.77
2018-12-27T13:55:42.588Z,27.50
2018-12-27T13:58:13.434Z,30.70
2018-12-27T14:00:42.210Z,27.73
2018-12-27T14:03:11.003Z,27.87
2018-12-27T14:05:39.947Z,29.60
2018-12-27T14:08:08.743Z,28.80
2018-12-27T14:10:37.564Z,29.40
2018-12-27T14:13:06.410Z,30.17
2018-12-27T14:15:35.263Z,30.77
2018-12-27T14:18:04.189Z,29.27
2018-12-27T14:20:33.846Z,32.47
2018-12-27T14:23:03.034Z,31.67
2018-12-27T14:25:31.891Z,30.03
2018-12-27T14:28:00.775Z,30.67
2018-12-27T14:30:30.177Z,29.57
2018-12-27T14:32:59.302Z,28.30
2018-12-27T14:35:28.174Z,26.27
2018-12-27T14:37:57.012Z,27.03
2018-12-27T14:40:27.617Z,28.03
2018-12-27T14:42:56.523Z,26.20
2018-12-27T14:45:25.312Z,27.23
2018-12-27T14:47:54.672Z,26.13
2018-12-27T14:50:24.518Z,30.83
2018-12-27T14:52:53.300Z,27.73
2018-12-27T14:55:22.231Z,31.10
2018-12-27T14:57:51.019Z,28.03
2018-12-27T15:00:19.848Z,24.57
2018-12-27T15:02:48.639Z,28.57
2018-12-27T15:05:18.492Z,26.67
2018-12-27T15:07:47.261Z,28.97
2018-12-27T15:10:16.073Z,29.83
2018-12-27T15:12:46.323Z,41.73
2018-12-27T15:15:15.218Z,40.87
2018-12-27T15:17:44.031Z,44.80
2018-12-27T15:20:12.912Z,39.67
2018-12-27T15:22:42.364Z,36.13
2018-12-27T15:25:11.200Z,30.57
2018-12-27T15:27:40.036Z,30.90
2018-12-27T15:30:08.879Z,26.87
2018-12-27T15:32:37.678Z,30.17
2018-12-27T15:35:06.614Z,26.77
2018-12-27T15:37:35.385Z,33.40
2018-12-27T15:40:05.703Z,29.77
2018-12-27T15:42:33.217Z,31.37
2018-12-27T15:45:03.467Z,29.83
2018-12-27T15:47:32.364Z,32.07
2018-12-27T15:50:02.214Z,27.17
2018-12-27T15:52:31.029Z,32.30
2018-12-27T15:54:59.806Z,30.10
2018-12-27T15:57:29.087Z,33.70
2018-12-27T15:59:57.852Z,29.80
2018-12-27T16:02:26.691Z,31.90
2018-12-27T16:04:55.582Z,33.50
2018-12-27T16:07:24.390Z,33.07
2018-12-27T16:09:54.158Z,42.27
2018-12-27T16:12:23.567Z,31.93
2018-12-27T16:14:52.363Z,32.83
2018-12-27T16:17:21.205Z,32.17
2018-12-27T16:19:51.231Z,32.03
2018-12-27T16:22:20.169Z,30.77
2018-12-27T16:24:49.724Z,29.80
2018-12-27T16:27:18.567Z,28.10
2018-12-27T16:29:47.997Z,32.47
2018-12-27T16:32:23.517Z,35.33
2018-12-27T16:34:52.346Z,34.20
2018-12-27T16:37:21.635Z,34.00
2018-12-27T16:39:50.666Z,33.33
2018-12-27T16:42:22.037Z,31.20
2018-12-27T16:44:48.383Z,31.83
2018-12-27T16:47:25.967Z,38.73
2018-12-27T16:49:54.990Z,40.63
2018-12-27T16:52:23.918Z,46.13
2018-12-27T16:54:52.702Z,72.57
2018-12-27T16:57:22.075Z,70.60
2018-12-27T16:59:59.196Z,68.17
2018-12-27T17:02:28.039Z,57.17
2018-12-27T17:04:56.867Z,44.07
2018-12-27T17:07:25.663Z,40.87
2018-12-27T17:09:54.451Z,37.40
2018-12-27T17:12:23.976Z,34.30
2018-12-27T17:14:52.758Z,36.23
2018-12-27T17:17:21.543Z,32.30
2018-12-27T17:19:50.326Z,36.40
2018-12-27T17:22:19.315Z,37.63
2018-12-27T17:24:48.476Z,38.30
2018-12-27T17:27:18.757Z,40.67
2018-12-27T17:29:48.115Z,35.27
2018-12-27T17:32:16.986Z,37.37
2018-12-27T17:34:45.835Z,38.97
2018-12-27T17:37:15.230Z,40.20
2018-12-27T17:39:44.492Z,53.10
2018-12-27T17:42:13.401Z,49.60
2018-12-27T17:44:42.195Z,51.13
2018-12-27T17:47:12.378Z,43.97
2018-12-27T17:49:41.286Z,52.83
2018-12-27T17:52:10.200Z,43.27
2018-12-27T17:54:39.026Z,36.67
2018-12-27T17:57:07.849Z,42.43
2018-12-27T17:59:37.972Z,40.90
2018-12-27T18:02:06.747Z,39.23
2018-12-27T18:04:35.538Z,43.60
2018-12-27T18:07:04.323Z,40.83
2018-12-27T18:09:34.359Z,40.27
2018-12-27T18:12:03.147Z,45.70
2018-12-27T18:14:32.051Z,51.33
2018-12-27T18:17:01.586Z,51.40
2018-12-27T18:19:30.342Z,45.13
2018-12-27T18:21:59.127Z,48.90
2018-12-27T18:24:28.666Z,41.17
2018-12-27T18:26:57.448Z,45.90
2018-12-27T18:29:26.315Z,47.70
2018-12-27T18:31:55.121Z,52.13
2018-12-27T18:34:24.942Z,65.17
2018-12-27T18:36:54.114Z,70.60
2018-12-27T18:39:22.914Z,64.43
2018-12-27T18:41:51.784Z,60.43
2018-12-27T18:44:21.195Z,64.03
2018-12-27T18:46:50.008Z,62.00
2018-12-27T18:49:20.699Z,68.93
2018-12-27T18:51:48.815Z,67.03
2018-12-27T18:54:17.690Z,67.00
2018-12-27T18:56:46.476Z,53.93
2018-12-27T18:59:15.815Z,48.87
2018-12-27T19:01:45.345Z,49.60
2018-12-27T19:04:14.639Z,60.37
2018-12-27T19:06:43.430Z,56.27
2018-12-27T19:09:12.999Z,56.47
2018-12-27T19:11:53.298Z,50.40
2018-12-27T19:14:22.475Z,49.37
2018-12-27T19:16:52.141Z,47.80
2018-12-27T19:19:20.908Z,56.27
2018-12-27T19:22:16.812Z,69.60
2018-12-27T19:24:45.731Z,62.23
2018-12-27T19:27:14.717Z,54.83
2018-12-27T19:29:43.638Z,54.17
2018-12-27T19:32:12.528Z,50.60
2018-12-27T19:34:41.391Z,65.80
2018-12-27T19:37:10.286Z,52.87
2018-12-27T19:39:39.097Z,61.30
2018-12-27T19:42:07.886Z,55.73
2018-12-27T19:44:36.684Z,55.03
2018-12-27T19:47:05.463Z,56.20
2018-12-27T19:49:34.311Z,60.27
2018-12-27T19:52:03.243Z,69.90
2018-12-27T19:54:32.410Z,118.80
2018-12-27T19:57:01.236Z,91.97
2018-12-27T19:59:30.939Z,86.97
2018-12-27T20:01:59.705Z,69.30
2018-12-27T20:04:28.579Z,70.23
2018-12-27T20:06:57.424Z,56.53
2018-12-27T20:09:26.507Z,57.87
2018-12-27T20:11:55.264Z,52.77
2018-12-27T20:14:24.055Z,46.10
2018-12-27T20:16:52.849Z,50.13
2018-12-27T20:19:21.995Z,48.13
2018-12-27T20:21:50.771Z,42.40
2018-12-27T20:24:19.571Z,54.63
2018-12-27T20:26:48.396Z,36.70
2018-12-27T20:29:18.336Z,39.80
2018-12-27T20:31:47.143Z,41.37
2018-12-27T20:34:16.522Z,47.83
2018-12-27T20:36:45.320Z,46.10
2018-12-27T20:39:14.308Z,48.37
2018-12-27T20:41:43.149Z,45.23
2018-12-27T20:44:12.912Z,48.27
2018-12-27T20:46:41.724Z,49.00
2018-12-27T20:49:10.579Z,55.37
2018-12-27T20:51:39.359Z,47.00
2018-12-27T20:54:08.161Z,54.10
2018-12-27T20:56:36.948Z,52.60
2018-12-27T20:59:05.846Z,51.67
2018-12-27T21:01:34.639Z,42.70
2018-12-27T21:04:04.132Z,51.50
2018-12-27T21:06:32.924Z,42.23
2018-12-27T21:09:01.768Z,45.20
2018-12-27T21:11:30.562Z,47.57
2018-12-27T21:13:59.446Z,47.47
2018-12-27T21:16:28.847Z,46.40
2018-12-27T21:18:58.195Z,55.57
2018-12-27T21:21:27.039Z,44.37
2018-12-27T21:23:55.820Z,46.90
2018-12-27T21:26:25.783Z,60.47
2018-12-27T21:28:54.571Z,98.90
2018-12-27T21:31:23.367Z,110.13
2018-12-27T21:33:52.149Z,90.63
2018-12-27T21:36:21.820Z,78.93
2018-12-27T21:38:50.614Z,76.33
2018-12-27T21:41:19.610Z,94.37
2018-12-27T21:43:48.730Z,95.97
2018-12-27T21:46:17.599Z,98.87
2018-12-27T21:48:46.429Z,86.63
2018-12-27T21:51:15.259Z,71.13
2018-12-27T21:53:44.711Z,73.27
2018-12-27T21:56:13.540Z,73.97
2018-12-27T21:58:42.352Z,72.17
2018-12-27T22:01:12.366Z,69.17
2018-12-27T22:03:42.734Z,63.60
2018-12-27T22:06:11.618Z,56.13
2018-12-27T22:08:40.399Z,54.87
2018-12-27T22:11:09.658Z,66.43
2018-12-27T22:13:39.291Z,69.67
2018-12-27T22:16:08.217Z,68.93
2018-12-27T22:18:37.041Z,64.43
2018-12-27T22:21:06.965Z,85.13
2018-12-27T22:23:35.752Z,62.03
2018-12-27T22:26:05.196Z,62.40
2018-12-27T22:28:33.975Z,61.77
2018-12-27T22:31:02.879Z,62.20
2018-12-27T22:33:32.251Z,58.40
2018-12-27T22:36:01.305Z,65.07
2018-12-27T22:38:35.610Z,69.00
2018-12-27T22:40:58.978Z,58.43
2018-12-27T22:43:29.615Z,69.83
2018-12-27T22:45:58.939Z,75.67
2018-12-27T22:48:27.726Z,63.67
2018-12-27T22:50:57.189Z,55.80
2018-12-27T22:53:25.953Z,61.27
2018-12-27T22:55:56.726Z,64.43
2018-12-27T22:58:26.944Z,65.07
2018-12-27T23:00:57.235Z,56.90
2018-12-27T23:03:26.047Z,57.50
2018-12-27T23:05:54.898Z,54.77
2018-12-27T23:08:24.368Z,48.33
2018-12-27T23:10:53.173Z,55.47
2018-12-27T23:13:22.061Z,58.57
2018-12-27T23:15:51.488Z,60.17
2018-12-27T23:18:21.226Z,57.30
2018-12-27T23:20:50.057Z,55.27
2018-12-27T23:23:18.959Z,51.60
2018-12-27T23:25:48.768Z,48.43
2018-12-27T23:28:18.093Z,53.80
2018-12-27T23:30:46.885Z,56.80
2018-12-27T23:33:15.669Z,50.03
2018-12-27T23:35:44.503Z,65.20
2018-12-27T23:38:13.283Z,63.13
2018-12-27T23:40:42.179Z,64.40
2018-12-27T23:43:11.003Z,62.57
2018-12-27T23:45:39.787Z,59.23
2018-12-27T23:48:08.687Z,59.80
2018-12-27T23:50:37.459Z,54.20
2018-12-27T23:53:06.386Z,52.30
2018-12-27T23:55:36.178Z,57.10
2018-12-27T23:58:05.596Z,59.40
